
Distance (Route):
Temperature : -44.1°C
Humidity : 35.9%
Pressure : 0hPa| Receiver | Date | Latitude | Longitude | Direction | Speed | Altitude | Climb | Temperature | Humidity | Pressure | Voltage | Killtimer | Uptime | BKT | XDATA |
|---|---|---|---|---|---|---|---|---|---|---|---|---|---|---|---|
| LZ4TU-5 | 2026-08-31 18:52:22 | 43.21964 | 20.48198 | 108° | 77km/h | 10813m | -20.9m/s | -44.1°C | 35.9% | 0hPa | 0V | 00:00:00 | 00:00:00 | 00:00:00 | |
| LZ4TU-5 | 2026-08-31 18:52:18 | 43.21988 | 20.48099 | 111° | 78km/h | 10893m | -20.5m/s | -44.7°C | 35.9% | 0hPa | 0V | 00:00:00 | 00:00:00 | 00:00:00 | |
| LZ4TU-5 | 2026-08-31 18:51:03 | 43.22653 | 20.46101 | 116° | 80km/h | 12482m | -22.3m/s | -56.1°C | 25.3% | 0hPa | 0V | 00:00:00 | 00:00:00 | 00:00:00 | |
| LZ4TU-5 | 2026-08-31 18:50:58 | 43.22693 | 20.45974 | 115° | 80km/h | 12598m | -22.5m/s | -56.8°C | 23.3% | 0hPa | 0V | 00:00:00 | 00:00:00 | 00:00:00 | |
| LZ4TU-5 | 2026-08-31 18:49:37 | 43.22935 | 20.44436 | 84° | 55km/h | 14570m | -26.1m/s | -65.2°C | 4.0% | 0hPa | 0V | 00:00:00 | 00:00:00 | 00:00:00 | |
| LZ4TU-5 | 2026-08-31 18:49:33 | 43.22934 | 20.44359 | 95° | 57km/h | 14675m | -26.2m/s | -65.3°C | 3.2% | 0hPa | 0V | 00:00:00 | 00:00:00 | 00:00:00 | |
| LZ4TU-5 | 2026-08-31 18:48:11 | 43.22801 | 20.43083 | 89° | 47km/h | 17041m | -32.8m/s | -58.7°C | 0.0% | 0hPa | 0V | 00:00:00 | 00:00:00 | 00:00:00 | |
| LZ4TU-5 | 2026-08-31 18:48:06 | 43.22800 | 20.43008 | 90° | 37km/h | 17198m | -32.5m/s | -58.5°C | 0.0% | 0hPa | 0V | 00:00:00 | 00:00:00 | 00:00:00 | |
| LZ4TU-5 | 2026-08-31 18:48:02 | 43.22797 | 20.42958 | 86° | 35km/h | 17331m | -32.8m/s | -58.3°C | 0.0% | 0hPa | 0V | 00:00:00 | 00:00:00 | 00:00:00 | |
| LZ4TU-5 | 2026-08-31 18:46:45 | 43.22642 | 20.42525 | 82° | 9km/h | 20152m | -41.1m/s | -56.1°C | 0.0% | 0hPa | 0V | 00:00:00 | 00:00:00 | 00:00:00 | |
| LZ4TU-5 | 2026-08-31 18:46:40 | 43.22637 | 20.42517 | 332° | 13km/h | 20355m | -41.7m/s | -55.6°C | 0.0% | 0hPa | 0V | 00:00:00 | 00:00:00 | 00:00:00 | |
| LZ4TU-5 | 2026-08-31 18:44:15 | 43.22598 | 20.42758 | 163° | 5km/h | 27690m | -65.2m/s | -46.1°C | 0.3% | 0hPa | 0V | 00:00:00 | 00:00:00 | 00:00:00 | |
| LZ4TU-5 | 2026-08-31 18:44:10 | 43.22602 | 20.42751 | 110° | 4km/h | 28015m | -65.5m/s | -45.2°C | 0.2% | 0hPa | 0V | 00:00:00 | 00:00:00 | 00:00:00 | |
| LZ4TU-5 | 2026-08-31 18:42:55 | 43.22711 | 20.42958 | 11° | 7km/h | 32210m | 7.1m/s | -40.6°C | 0.0% | 0hPa | 0V | 00:00:00 | 00:00:00 | 00:00:00 | |
| LZ4TU-5 | 2026-08-31 18:42:50 | 43.22705 | 20.42966 | 297° | 22km/h | 32177m | 7.0m/s | -40.8°C | 0.0% | 0hPa | 0V | 00:00:00 | 00:00:00 | 00:00:00 | |
| LZ4TU-5 | 2026-08-31 18:41:35 | 43.22911 | 20.43474 | 186° | 33km/h | 31660m | 5.2m/s | -41.0°C | 0.0% | 0hPa | 0V | 00:00:00 | 00:00:00 | 00:00:00 | |
| LZ4TU-5 | 2026-08-31 18:41:30 | 43.22939 | 20.43470 | 196° | 20km/h | 31626m | 6.0m/s | -40.9°C | 0.0% | 0hPa | 0V | 00:00:00 | 00:00:00 | 00:00:00 | |
| OM5KV | 2026-08-31 18:40:50 | 43.23151 | 20.43540 | 172° | 11km/h | 31343m | 6.6m/s | -40.8°C | 0.0% | 0hPa | 0V | 00:00:00 | 00:00:00 | 00:00:00 | |
| OM5KV | 2026-08-31 18:40:49 | 43.23154 | 20.43540 | 202° | 9km/h | 31335m | 7.6m/s | -40.9°C | 0.0% | 0hPa | 0V | 00:00:00 | 00:00:00 | 00:00:00 | |
| OM5KV | 2026-08-31 18:40:43 | 43.23170 | 20.43561 | 194° | 16km/h | 31294m | 6.6m/s | -41.0°C | 0.0% | 0hPa | 0V | 00:00:00 | 00:00:00 | 00:00:00 | |
| OM5KV | 2026-08-31 18:40:37 | 43.23173 | 20.43588 | 318° | 18km/h | 31256m | 6.6m/s | -41.1°C | 0.0% | 0hPa | 0V | 00:00:00 | 00:00:00 | 00:00:00 | |
| OM5KV | 2026-08-31 18:40:36 | 43.23171 | 20.43592 | 300° | 9km/h | 31248m | 8.3m/s | -41.1°C | 0.0% | 0hPa | 0V | 00:00:00 | 00:00:00 | 00:00:00 | |
| OM5KV | 2026-08-31 18:40:29 | 43.23184 | 20.43622 | 297° | 27km/h | 31197m | 6.8m/s | -41.1°C | 0.0% | 0hPa | 0V | 00:00:00 | 00:00:00 | 00:00:00 | |
| OM5KV | 2026-08-31 18:40:24 | 43.23192 | 20.43659 | 218° | 33km/h | 31163m | 6.3m/s | -41.3°C | 0.0% | 0hPa | 0V | 00:00:00 | 00:00:00 | 00:00:00 | |
| OM5KV | 2026-08-31 18:40:23 | 43.23199 | 20.43664 | 204° | 27km/h | 31159m | 4.1m/s | -41.3°C | 0.0% | 0hPa | 0V | 00:00:00 | 00:00:00 | 00:00:00 | |
| OM5KV | 2026-08-31 18:40:15 | 43.23207 | 20.43695 | 257° | 44km/h | 31101m | 6.1m/s | -41.5°C | 0.0% | 0hPa | 0V | 00:00:00 | 00:00:00 | 00:00:00 | |
| OM5KV | 2026-08-31 18:40:12 | 43.23218 | 20.43725 | 202° | 20km/h | 31080m | 7.5m/s | -41.5°C | 0.0% | 0hPa | 0V | 00:00:00 | 00:00:00 | 00:00:00 | |
| LZ4TU-5 | 2026-08-31 18:40:10 | 43.23228 | 20.43724 | 160° | 18km/h | 31063m | 9.0m/s | -41.5°C | 0.0% | 0hPa | 0V | 00:00:00 | 00:00:00 | 00:00:00 | |
| OM5KV | 2026-08-31 18:40:07 | 43.23237 | 20.43714 | 139° | 9km/h | 31044m | 6.0m/s | -41.6°C | 0.0% | 0hPa | 0V | 00:00:00 | 00:00:00 | 00:00:00 | |
| OM5KV | 2026-08-31 18:40:05 | 43.23235 | 20.43719 | 300° | 22km/h | 31030m | 9.3m/s | -41.7°C | 0.0% | 0hPa | 0V | 00:00:00 | 00:00:00 | 00:00:00 | |
| OM5KV | 2026-08-31 18:40:00 | 43.23227 | 20.43764 | 204° | 20km/h | 30993m | 7.9m/s | -41.5°C | 0.0% | 0hPa | 0V | 00:00:00 | 00:00:00 | 00:00:00 | |
| OM5KV | 2026-08-31 18:39:52 | 43.23225 | 20.43766 | 278° | 38km/h | 30932m | 7.5m/s | -41.5°C | 0.0% | 0hPa | 0V | 00:00:00 | 00:00:00 | 00:00:00 | |
| OM5KV | 2026-08-31 18:39:51 | 43.23225 | 20.43780 | 271° | 42km/h | 30928m | 4.5m/s | -41.5°C | 0.0% | 0hPa | 0V | 00:00:00 | 00:00:00 | 00:00:00 | |
| OM5KV | 2026-08-31 18:39:46 | 43.23226 | 20.43803 | 113° | 18km/h | 30892m | 6.6m/s | -41.6°C | 0.0% | 0hPa | 0V | 00:00:00 | 00:00:00 | 00:00:00 | |
| OM5KV | 2026-08-31 18:39:45 | 43.23228 | 20.43797 | 110° | 18km/h | 30884m | 8.0m/s | -41.5°C | 0.0% | 0hPa | 0V | 00:00:00 | 00:00:00 | 00:00:00 | |
| OM5KV | 2026-08-31 18:39:40 | 43.23221 | 20.43819 | 299° | 51km/h | 30846m | 9.2m/s | -41.4°C | 0.0% | 0hPa | 0V | 00:00:00 | 00:00:00 | 00:00:00 | |
| OM5KV | 2026-08-31 18:39:37 | 43.23208 | 20.43865 | 274° | 37km/h | 30833m | 6.0m/s | -41.3°C | 0.0% | 0hPa | 0V | 00:00:00 | 00:00:00 | 00:00:00 | |
| OM5KV | 2026-08-31 18:39:32 | 43.23234 | 20.43867 | 146° | 16km/h | 30794m | 4.8m/s | -41.2°C | 0.0% | 0hPa | 0V | 00:00:00 | 00:00:00 | 00:00:00 | |
| OM5KV | 2026-08-31 18:39:27 | 43.23229 | 20.43918 | 268° | 57km/h | 30752m | 4.4m/s | -41.1°C | 0.0% | 0hPa | 0V | 00:00:00 | 00:00:00 | 00:00:00 | |
| OM5KV | 2026-08-31 18:39:22 | 43.23244 | 20.43949 | 137° | 33km/h | 30711m | 8.9m/s | -41.0°C | 0.0% | 0hPa | 0V | 00:00:00 | 00:00:00 | 00:00:00 | |
| OM5KV | 2026-08-31 18:39:07 | 43.23316 | 20.44008 | 187° | 18km/h | 30603m | 8.1m/s | -41.0°C | 0.0% | 0hPa | 0V | 00:00:00 | 00:00:00 | 00:00:00 | |
| OM5KV | 2026-08-31 18:39:01 | 43.23338 | 20.44065 | 204° | 38km/h | 30561m | 6.6m/s | -40.8°C | 0.0% | 0hPa | 0V | 00:00:00 | 00:00:00 | 00:00:00 | |
| LZ4TU-5 | 2026-08-31 18:38:57 | 43.23364 | 20.44052 | 90° | 18km/h | 30528m | 6.9m/s | -41.0°C | 0.0% | 0hPa | 0V | 00:00:00 | 00:00:00 | 00:00:00 | |
| OM5KV | 2026-08-31 18:38:56 | 43.23363 | 20.44047 | 50° | 11km/h | 30522m | 6.4m/s | -41.1°C | 0.0% | 0hPa | 0V | 00:00:00 | 00:00:00 | 00:00:00 | |
| OM5KV | 2026-08-31 18:38:55 | 43.23362 | 20.44046 | 309° | 5km/h | 30514m | 7.7m/s | -41.2°C | 0.0% | 0hPa | 0V | 00:00:00 | 00:00:00 | 00:00:00 | |
| LZ4TU-5 | 2026-08-31 18:38:52 | 43.23370 | 20.44069 | 232° | 40km/h | 30493m | 5.9m/s | -41.2°C | 0.0% | 0hPa | 0V | 00:00:00 | 00:00:00 | 00:00:00 | |
| OM5KV | 2026-08-31 18:38:49 | 43.23391 | 20.44083 | 165° | 29km/h | 30471m | 8.1m/s | -41.0°C | 0.0% | 0hPa | 0V | 00:00:00 | 00:00:00 | 00:00:00 | |
| OM5KV | 2026-08-31 18:38:46 | 43.23409 | 20.44065 | 141° | 20km/h | 30449m | 6.1m/s | -40.9°C | 0.0% | 0hPa | 0V | 00:00:00 | 00:00:00 | 00:00:00 | |
| OM5KV | 2026-08-31 18:38:41 | 43.23415 | 20.44086 | 262° | 33km/h | 30415m | 3.7m/s | -40.7°C | 0.0% | 0hPa | 0V | 00:00:00 | 00:00:00 | 00:00:00 | |
| LZ4TU-5 | 2026-08-31 18:37:40 | 43.23527 | 20.44276 | 238° | 38km/h | 29983m | 6.4m/s | -40.2°C | 0.0% | 0hPa | 0V | 00:00:00 | 00:00:00 | 00:00:00 | |
| LZ4TU-5 | 2026-08-31 18:37:35 | 43.23532 | 20.44296 | 10° | 16km/h | 29949m | 5.2m/s | -40.5°C | 0.0% | 0hPa | 0V | 00:00:00 | 00:00:00 | 00:00:00 | |
| OM5KV | 2026-08-31 18:36:58 | 43.23488 | 20.44498 | 43° | 7km/h | 29701m | 5.0m/s | -41.5°C | 0.0% | 0hPa | 0V | 00:00:00 | 00:00:00 | 00:00:00 | |
| OM5KV | 2026-08-31 18:36:52 | 43.23479 | 20.44533 | 272° | 24km/h | 29662m | 3.7m/s | -42.1°C | 0.0% | 0hPa | 0V | 00:00:00 | 00:00:00 | 00:00:00 | |
| OM5KV | 2026-08-31 18:36:47 | 43.23471 | 20.44542 | 128° | 11km/h | 29625m | 5.2m/s | -42.2°C | 0.0% | 0hPa | 0V | 00:00:00 | 00:00:00 | 00:00:00 | |
| OM5KV | 2026-08-31 18:36:34 | 43.23473 | 20.44582 | 0° | 0km/h | 29544m | 6.6m/s | -42.3°C | 0.0% | 0hPa | 0V | 00:00:00 | 00:00:00 | 00:00:00 | |
| OM5KV | 2026-08-31 18:36:25 | 43.23462 | 20.44600 | 181° | 9km/h | 29482m | 8.0m/s | -42.9°C | 0.0% | 0hPa | 0V | 00:00:00 | 00:00:00 | 00:00:00 | |
| OM5KV | 2026-08-31 18:36:23 | 43.23468 | 20.44596 | 144° | 15km/h | 29469m | 7.1m/s | -42.8°C | 0.0% | 0hPa | 0V | 00:00:00 | 00:00:00 | 00:00:00 | |
| LZ4TU-5 | 2026-08-31 18:36:21 | 43.23471 | 20.44589 | 85° | 11km/h | 29459m | 3.9m/s | -42.8°C | 0.0% | 0hPa | 0V | 00:00:00 | 00:00:00 | 00:00:00 | |
| LZ4TU-5 | 2026-08-31 18:36:16 | 43.23463 | 20.44577 | 211° | 11km/h | 29424m | 9.4m/s | -43.0°C | 0.0% | 0hPa | 0V | 00:00:00 | 00:00:00 | 00:00:00 | |
| OM5KV | 2026-08-31 18:36:10 | 43.23472 | 20.44592 | 44° | 5km/h | 29383m | 9.0m/s | -42.7°C | 0.0% | 0hPa | 0V | 00:00:00 | 00:00:00 | 00:00:00 | |
| LZ4TU-5 | 2026-08-31 18:35:02 | 43.23460 | 20.44525 | 88° | 7km/h | 28911m | 6.1m/s | -45.1°C | 0.0% | 0hPa | 0V | 00:00:00 | 00:00:00 | 00:00:00 | |
| LZ4TU-5 | 2026-08-31 18:34:57 | 43.23462 | 20.44522 | 217° | 13km/h | 28875m | 8.7m/s | -45.3°C | 0.0% | 0hPa | 0V | 00:00:00 | 00:00:00 | 00:00:00 | |
| LZ4TU-5 | 2026-08-31 18:33:42 | 43.23598 | 20.44343 | 40° | 11km/h | 28339m | 7.7m/s | -45.1°C | 0.0% | 0hPa | 0V | 00:00:00 | 00:00:00 | 00:00:00 | |
| LZ4TU-5 | 2026-08-31 18:33:37 | 43.23592 | 20.44330 | 115° | 4km/h | 28303m | 5.4m/s | -45.2°C | 0.0% | 0hPa | 0V | 00:00:00 | 00:00:00 | 00:00:00 | |
| LZ4TU-5 | 2026-08-31 18:32:24 | 43.23689 | 20.44446 | 19° | 20km/h | 27812m | 8.0m/s | -47.8°C | 0.0% | 0hPa | 0V | 00:00:00 | 00:00:00 | 00:00:00 | |
| LZ4TU-5 | 2026-08-31 18:32:19 | 43.23665 | 20.44438 | 0° | 0km/h | 27781m | 6.6m/s | -47.7°C | 0.0% | 0hPa | 0V | 00:00:00 | 00:00:00 | 00:00:00 | |
| LZ4TU-5 | 2026-08-31 18:30:56 | 43.23735 | 20.44709 | 190° | 4km/h | 27270m | 7.8m/s | -48.3°C | 0.0% | 0hPa | 0V | 00:00:00 | 00:00:00 | 00:00:00 | |
| LZ4TU-5 | 2026-08-31 18:30:52 | 43.23745 | 20.44704 | 163° | 24km/h | 27244m | 6.4m/s | -48.2°C | 0.0% | 0hPa | 0V | 00:00:00 | 00:00:00 | 00:00:00 | |
| LZ4TU-5 | 2026-08-31 18:29:30 | 43.23673 | 20.44473 | 318° | 33km/h | 26702m | 5.6m/s | -49.0°C | 0.0% | 0hPa | 0V | 00:00:00 | 00:00:00 | 00:00:00 | |
| LZ4TU-5 | 2026-08-31 18:29:26 | 43.23650 | 20.44487 | 12° | 22km/h | 26675m | 7.3m/s | -49.2°C | 0.0% | 0hPa | 0V | 00:00:00 | 00:00:00 | 00:00:00 | |
| LZ4TU-5 | 2026-08-31 18:28:12 | 43.23499 | 20.44742 | 329° | 35km/h | 26179m | 7.2m/s | -49.8°C | 0.0% | 0hPa | 0V | 00:00:00 | 00:00:00 | 00:00:00 | |
| LZ4TU-5 | 2026-08-31 18:28:07 | 43.23458 | 20.44784 | 300° | 27km/h | 26147m | 6.9m/s | -49.8°C | 0.0% | 0hPa | 0V | 00:00:00 | 00:00:00 | 00:00:00 | |
| LZ4TU-5 | 2026-08-31 18:26:51 | 43.23396 | 20.45325 | 222° | 11km/h | 25670m | 5.8m/s | -50.1°C | 0.0% | 0hPa | 0V | 00:00:00 | 00:00:00 | 00:00:00 | |
| LZ4TU-5 | 2026-08-31 18:26:46 | 43.23399 | 20.45331 | 169° | 5km/h | 25639m | 7.4m/s | -50.3°C | 0.0% | 0hPa | 0V | 00:00:00 | 00:00:00 | 00:00:00 | |
| LZ4TU-5 | 2026-08-31 18:25:31 | 43.23327 | 20.45457 | 237° | 13km/h | 25177m | 5.1m/s | -52.5°C | 0.0% | 0hPa | 0V | 00:00:00 | 00:00:00 | 00:00:00 | |
| LZ4TU-5 | 2026-08-31 18:25:26 | 43.23321 | 20.45459 | 351° | 5km/h | 25144m | 6.8m/s | -52.5°C | 0.0% | 0hPa | 0V | 00:00:00 | 00:00:00 | 00:00:00 | |
| LZ4TU-5 | 2026-08-31 18:24:12 | 43.23343 | 20.45825 | 223° | 24km/h | 24662m | 5.1m/s | -52.1°C | 0.0% | 0hPa | 0V | 00:00:00 | 00:00:00 | 00:00:00 | |
| LZ4TU-5 | 2026-08-31 18:24:07 | 43.23357 | 20.45847 | 261° | 18km/h | 24629m | 7.4m/s | -52.2°C | 0.0% | 0hPa | 0V | 00:00:00 | 00:00:00 | 00:00:00 | |
| OM5KV | 2026-08-31 18:22:58 | 43.23476 | 20.46124 | 270° | 7km/h | 24186m | 6.0m/s | -52.2°C | 0.0% | 0hPa | 0V | 00:00:00 | 00:00:00 | 00:00:00 | |
| LZ4TU-5 | 2026-08-31 18:22:54 | 43.23481 | 20.46139 | 233° | 15km/h | 24159m | 6.2m/s | -52.3°C | 0.0% | 0hPa | 0V | 00:00:00 | 00:00:00 | 00:00:00 | |
| LZ4TU-5 | 2026-08-31 18:22:49 | 43.23503 | 20.46155 | 187° | 11km/h | 24129m | 6.8m/s | -52.2°C | 0.0% | 0hPa | 0V | 00:00:00 | 00:00:00 | 00:00:00 | |
| LZ4TU-5 | 2026-08-31 18:21:35 | 43.23684 | 20.46267 | 295° | 15km/h | 23682m | 6.7m/s | -53.4°C | 0.0% | 0hPa | 0V | 00:00:00 | 00:00:00 | 00:00:00 | |
| LZ4TU-5 | 2026-08-31 18:21:30 | 43.23683 | 20.46287 | 313° | 7km/h | 23653m | 5.6m/s | -53.6°C | 0.0% | 0hPa | 0V | 00:00:00 | 00:00:00 | 00:00:00 | |
| LZ4TU-5 | 2026-08-31 18:19:04 | 43.23541 | 20.46564 | 196° | 16km/h | 22749m | 7.8m/s | -54.8°C | 0.0% | 0hPa | 0V | 00:00:00 | 00:00:00 | 00:00:00 | |
| LZ4TU-5 | 2026-08-31 18:18:59 | 43.23556 | 20.46579 | 237° | 13km/h | 22719m | 7.2m/s | -55.0°C | 0.0% | 0hPa | 0V | 00:00:00 | 00:00:00 | 00:00:00 | |
| LZ4TU-5 | 2026-08-31 18:17:45 | 43.23619 | 20.46660 | 344° | 15km/h | 22282m | 7.2m/s | -55.8°C | 0.2% | 0hPa | 0V | 00:00:00 | 00:00:00 | 00:00:00 | |
| LZ4TU-5 | 2026-08-31 18:17:40 | 43.23608 | 20.46684 | 297° | 7km/h | 22254m | 5.6m/s | -55.8°C | 0.2% | 0hPa | 0V | 00:00:00 | 00:00:00 | 00:00:00 | |
| LZ4TU-5 | 2026-08-31 18:16:22 | 43.23707 | 20.46598 | 97° | 9km/h | 21786m | 5.6m/s | -56.3°C | 0.3% | 0hPa | 0V | 00:00:00 | 00:00:00 | 00:00:00 | |
| LZ4TU-5 | 2026-08-31 18:15:09 | 43.23579 | 20.46375 | 63° | 18km/h | 21334m | 5.7m/s | -56.0°C | 0.6% | 0hPa | 0V | 00:00:00 | 00:00:00 | 00:00:00 | |
| LZ4TU-5 | 2026-08-31 18:15:04 | 43.23568 | 20.46359 | 335° | 2km/h | 21303m | 5.5m/s | -55.9°C | 0.6% | 0hPa | 0V | 00:00:00 | 00:00:00 | 00:00:00 | |
| LZ4TU-5 | 2026-08-31 18:13:48 | 43.23414 | 20.46396 | 38° | 11km/h | 20851m | 5.8m/s | -55.8°C | 0.5% | 0hPa | 0V | 00:00:00 | 00:00:00 | 00:00:00 | |
| LZ4TU-5 | 2026-08-31 18:13:43 | 43.23398 | 20.46386 | 327° | 9km/h | 20822m | 6.1m/s | -55.9°C | 0.5% | 0hPa | 0V | 00:00:00 | 00:00:00 | 00:00:00 | |
| LZ4TU-5 | 2026-08-31 18:13:38 | 43.23403 | 20.46389 | 98° | 7km/h | 20796m | 6.3m/s | -56.0°C | 0.5% | 0hPa | 0V | 00:00:00 | 00:00:00 | 00:00:00 | |
| LZ4TU-5 | 2026-08-31 18:12:24 | 43.23146 | 20.46552 | 321° | 26km/h | 20385m | 4.3m/s | -56.1°C | 0.8% | 0hPa | 0V | 00:00:00 | 00:00:00 | 00:00:00 | |
| LZ4TU-5 | 2026-08-31 18:12:19 | 43.23140 | 20.46576 | 252° | 11km/h | 20357m | 5.1m/s | -56.0°C | 0.8% | 0hPa | 0V | 00:00:00 | 00:00:00 | 00:00:00 | |
| LZ4TU-5 | 2026-08-31 18:11:05 | 43.23082 | 20.46243 | 74° | 31km/h | 19949m | 6.3m/s | -57.7°C | 1.2% | 0hPa | 0V | 00:00:00 | 00:00:00 | 00:00:00 | |
| LZ4TU-5 | 2026-08-31 18:11:00 | 43.23067 | 20.46195 | 50° | 29km/h | 19922m | 5.4m/s | -57.6°C | 1.2% | 0hPa | 0V | 00:00:00 | 00:00:00 | 00:00:00 | |
| LZ4TU-5 | 2026-08-31 18:09:48 | 43.22926 | 20.45996 | 111° | 7km/h | 19512m | 5.8m/s | -57.2°C | 1.2% | 0hPa | 0V | 00:00:00 | 00:00:00 | 00:00:00 | |
| LZ4TU-5 | 2026-08-31 18:09:43 | 43.22942 | 20.45980 | 156° | 15km/h | 19486m | 4.7m/s | -57.2°C | 1.2% | 0hPa | 0V | 00:00:00 | 00:00:00 | 00:00:00 | |
| LZ4TU-5 | 2026-08-31 18:08:22 | 43.22879 | 20.45670 | 0° | 0km/h | 19049m | 4.0m/s | -58.2°C | 1.6% | 0hPa | 0V | 00:00:00 | 00:00:00 | 00:00:00 | |
| LZ4TU-5 | 2026-08-31 18:08:16 | 43.22871 | 20.45645 | 90° | 26km/h | 19021m | 5.5m/s | -58.5°C | 1.7% | 0hPa | 0V | 00:00:00 | 00:00:00 | 00:00:00 | |
| LZ4TU-5 | 2026-08-31 18:07:02 | 43.22732 | 20.45117 | 100° | 13km/h | 18620m | 4.8m/s | -58.9°C | 2.0% | 0hPa | 0V | 00:00:00 | 00:00:00 | 00:00:00 | |
| LZ4TU-5 | 2026-08-31 18:06:57 | 43.22725 | 20.45083 | 60° | 26km/h | 18593m | 5.6m/s | -58.8°C | 2.0% | 0hPa | 0V | 00:00:00 | 00:00:00 | 00:00:00 | |
| LZ4TU-5 | 2026-08-31 18:06:53 | 43.22715 | 20.45056 | 69° | 20km/h | 18571m | 5.5m/s | -58.7°C | 1.9% | 0hPa | 0V | 00:00:00 | 00:00:00 | 00:00:00 | |
| LZ4TU-5 | 2026-08-31 18:06:48 | 43.22708 | 20.45032 | 66° | 20km/h | 18542m | 4.9m/s | -58.8°C | 1.9% | 0hPa | 0V | 00:00:00 | 00:00:00 | 00:00:00 | |
| LZ4TU-5 | 2026-08-31 18:05:31 | 43.22525 | 20.44758 | 346° | 29km/h | 18122m | 5.5m/s | -59.3°C | 2.8% | 0hPa | 0V | 00:00:00 | 00:00:00 | 00:00:00 | |
| LZ4TU-5 | 2026-08-31 18:05:26 | 43.22502 | 20.44765 | 12° | 11km/h | 18094m | 5.5m/s | -59.1°C | 2.9% | 0hPa | 0V | 00:00:00 | 00:00:00 | 00:00:00 | |
| LZ4TU-5 | 2026-08-31 18:04:12 | 43.22362 | 20.44540 | 88° | 20km/h | 17694m | 4.6m/s | -59.0°C | 3.6% | 0hPa | 0V | 00:00:00 | 00:00:00 | 00:00:00 | |
| LZ4TU-5 | 2026-08-31 18:04:07 | 43.22363 | 20.44494 | 102° | 27km/h | 17668m | 5.2m/s | -58.9°C | 3.6% | 0hPa | 0V | 00:00:00 | 00:00:00 | 00:00:00 | |
| LZ4TU-5 | 2026-08-31 18:02:51 | 43.22286 | 20.43668 | 97° | 26km/h | 17276m | 4.6m/s | -59.2°C | 4.4% | 0hPa | 0V | 00:00:00 | 00:00:00 | 00:00:00 | |
| LZ4TU-5 | 2026-08-31 18:01:32 | 43.22179 | 20.42444 | 79° | 53km/h | 16856m | 4.9m/s | -59.8°C | 6.1% | 0hPa | 0V | 00:00:00 | 00:00:00 | 00:00:00 | |
| LZ4TU-5 | 2026-08-31 18:01:28 | 43.22173 | 20.42359 | 88° | 64km/h | 16833m | 4.8m/s | -60.0°C | 6.1% | 0hPa | 0V | 00:00:00 | 00:00:00 | 00:00:00 | |
| LZ4TU-5 | 2026-08-31 18:00:14 | 43.21844 | 20.41279 | 32° | 27km/h | 16442m | 5.8m/s | -62.2°C | 8.4% | 0hPa | 0V | 00:00:00 | 00:00:00 | 00:00:00 | |
| LZ4TU-5 | 2026-08-31 18:00:10 | 43.21824 | 20.41264 | 38° | 18km/h | 16420m | 5.5m/s | -62.2°C | 8.5% | 0hPa | 0V | 00:00:00 | 00:00:00 | 00:00:00 | |
| LZ4TU-5 | 2026-08-31 18:00:05 | 43.21808 | 20.41230 | 57° | 31km/h | 16394m | 5.1m/s | -62.2°C | 8.7% | 0hPa | 0V | 00:00:00 | 00:00:00 | 00:00:00 | |
| LZ4TU-5 | 2026-08-31 18:00:00 | 43.21792 | 20.41205 | 17° | 20km/h | 16367m | 4.6m/s | -62.0°C | 8.9% | 0hPa | 0V | 00:00:00 | 00:00:00 | 00:00:00 | |
| LZ4TU-5 | 2026-08-31 17:58:45 | 43.21657 | 20.40818 | 89° | 40km/h | 15946m | 4.5m/s | -62.9°C | 0% | 0hPa | 0V | 00:00:00 | 00:00:00 | 00:00:00 | |
| LZ4TU-5 | 2026-08-31 17:58:40 | 43.21657 | 20.40731 | 93° | 57km/h | 15922m | 4.3m/s | -62.9°C | 12.4% | 0hPa | 0V | 00:00:00 | 00:00:00 | 00:00:00 | |
| LZ4TU-5 | 2026-08-31 17:57:25 | 43.21655 | 20.39404 | 103° | 49km/h | 15553m | 4.7m/s | -63.7°C | 15.9% | 0hPa | 0V | 00:00:00 | 00:00:00 | 00:00:00 | |
| LZ4TU-5 | 2026-08-31 17:57:20 | 43.21668 | 20.39308 | 95° | 69km/h | 15528m | 6.0m/s | -63.8°C | 16.1% | 0hPa | 0V | 00:00:00 | 00:00:00 | 00:00:00 | |
| LZ4TU-5 | 2026-08-31 17:56:04 | 43.21558 | 20.37912 | 92° | 51km/h | 15133m | 4.4m/s | -63.9°C | 19.4% | 0hPa | 0V | 00:00:00 | 00:00:00 | 00:00:00 | |
| LZ4TU-5 | 2026-08-31 17:56:00 | 43.21552 | 20.37841 | 76° | 51km/h | 15115m | 4.7m/s | -63.9°C | 19.5% | 0hPa | 0V | 00:00:00 | 00:00:00 | 00:00:00 | |
| LZ4TU-5 | 2026-08-31 17:54:48 | 43.21583 | 20.36550 | 98° | 62km/h | 14736m | 5.6m/s | -65.7°C | 22.1% | 0hPa | 0V | 00:00:00 | 00:00:00 | 00:00:00 | |
| LZ4TU-5 | 2026-08-31 17:54:43 | 43.21603 | 20.36432 | 102° | 73km/h | 14708m | 5.7m/s | -65.7°C | 22.2% | 0hPa | 0V | 00:00:00 | 00:00:00 | 00:00:00 | |
| LZ4TU-5 | 2026-08-31 17:53:26 | 43.21488 | 20.35043 | 90° | 46km/h | 14248m | 7.3m/s | -63.8°C | 21.6% | 0hPa | 0V | 00:00:00 | 00:00:00 | 00:00:00 | |
| LZ4TU-5 | 2026-08-31 17:53:22 | 43.21481 | 20.34980 | 69° | 44km/h | 14226m | 4.9m/s | -63.7°C | 21.6% | 0hPa | 0V | 00:00:00 | 00:00:00 | 00:00:00 | |
| LZ4TU-5 | 2026-08-31 17:52:10 | 43.21594 | 20.34179 | 121° | 42km/h | 13767m | 6.8m/s | -61.1°C | 22.7% | 0hPa | 0V | 00:00:00 | 00:00:00 | 00:00:00 | |
| LZ4TU-5 | 2026-08-31 17:52:06 | 43.21609 | 20.34132 | 105° | 40km/h | 13744m | 4.7m/s | -60.9°C | 22.9% | 0hPa | 0V | 00:00:00 | 00:00:00 | 00:00:00 | |
| LZ4TU-5 | 2026-08-31 17:50:45 | 43.21965 | 20.32887 | 114° | 53km/h | 13287m | 4.6m/s | -59.2°C | 26.3% | 0hPa | 0V | 00:00:00 | 00:00:00 | 00:00:00 | |
| LZ4TU-5 | 2026-08-31 17:50:40 | 43.21986 | 20.32786 | 104° | 66km/h | 13262m | 5.9m/s | -59.1°C | 26.7% | 0hPa | 0V | 00:00:00 | 00:00:00 | 00:00:00 | |
| LZ4TU-5 | 2026-08-31 17:49:25 | 43.22457 | 20.31118 | 113° | 78km/h | 12813m | 4.1m/s | -58.8°C | 36.5% | 0hPa | 0V | 00:00:00 | 00:00:00 | 00:00:00 | |
| LZ4TU-5 | 2026-08-31 17:49:20 | 43.22499 | 20.31001 | 119° | 84km/h | 12785m | 6.5m/s | -58.7°C | 36.5% | 0hPa | 0V | 00:00:00 | 00:00:00 | 00:00:00 | |
| LZ4TU-5 | 2026-08-31 17:48:08 | 43.23149 | 20.28989 | 114° | 102km/h | 12404m | 6.4m/s | -56.8°C | 38.9% | 0hPa | 0V | 00:00:00 | 00:00:00 | 00:00:00 | |
| LZ4TU-5 | 2026-08-31 17:48:03 | 43.23199 | 20.28851 | 118° | 84km/h | 12374m | 5.8m/s | -56.7°C | 38.8% | 0hPa | 0V | 00:00:00 | 00:00:00 | 00:00:00 | |
| LZ4TU-5 | 2026-08-31 17:46:49 | 43.23927 | 20.26710 | 111° | 91km/h | 11994m | 5.6m/s | -54.2°C | 39.4% | 0hPa | 0V | 00:00:00 | 00:00:00 | 00:00:00 | |
| LZ4TU-5 | 2026-08-31 17:46:45 | 43.23966 | 20.26590 | 119° | 99km/h | 11971m | 5.6m/s | -54.0°C | 39.4% | 0hPa | 0V | 00:00:00 | 00:00:00 | 00:00:00 | |
| LZ4TU-5 | 2026-08-31 17:45:30 | 43.24578 | 20.24459 | 112° | 86km/h | 11506m | 8.0m/s | -50.7°C | 37.3% | 0hPa | 0V | 00:00:00 | 00:00:00 | 00:00:00 | |
| LZ4TU-5 | 2026-08-31 17:45:25 | 43.24617 | 20.24318 | 113° | 86km/h | 11473m | 4.2m/s | -50.4°C | 37.0% | 0hPa | 0V | 00:00:00 | 00:00:00 | 00:00:00 | |
| LZ4TU-5 | 2026-08-31 17:44:06 | 43.25170 | 20.22168 | 111° | 71km/h | 10987m | 3.9m/s | -46.5°C | 34.6% | 0hPa | 0V | 00:00:00 | 00:00:00 | 00:00:00 | |
| LZ4TU-5 | 2026-08-31 17:42:51 | 43.25609 | 20.20189 | 122° | 89km/h | 10600m | 3.5m/s | -43.3°C | 33.4% | 0hPa | 0V | 00:00:00 | 00:00:00 | 00:00:00 | |
| LZ4TU-5 | 2026-08-31 17:41:23 | 43.26026 | 20.18095 | 119° | 77km/h | 10144m | 4.6m/s | -39.8°C | 31.2% | 0hPa | 0V | 00:00:00 | 00:00:00 | 00:00:00 | |
| LZ4TU-5 | 2026-08-31 17:41:18 | 43.26048 | 20.18005 | 92° | 57km/h | 10121m | 4.0m/s | -39.6°C | 30.8% | 0hPa | 0V | 00:00:00 | 00:00:00 | 00:00:00 | |
| LZ4TU-5 | 2026-08-31 17:39:55 | 43.26362 | 20.16232 | 113° | 71km/h | 9728m | 5.5m/s | -36.4°C | 24.1% | 0hPa | 0V | 00:00:00 | 00:00:00 | 00:00:00 | |
| LZ4TU-5 | 2026-08-31 17:39:50 | 43.26379 | 20.16121 | 103° | 62km/h | 9702m | 3.6m/s | -36.1°C | 23.7% | 0hPa | 0V | 00:00:00 | 00:00:00 | 00:00:00 | |
| LZ4TU-5 | 2026-08-31 17:38:38 | 43.26682 | 20.14617 | 115° | 58km/h | 9321m | 6.5m/s | -32.8°C | 18.7% | 0hPa | 0V | 00:00:00 | 00:00:00 | 00:00:00 | |
| LZ4TU-5 | 2026-08-31 17:38:33 | 43.26709 | 20.14514 | 101° | 75km/h | 9292m | 6.4m/s | -32.6°C | 18.9% | 0hPa | 0V | 00:00:00 | 00:00:00 | 00:00:00 | |
| LZ4TU-5 | 2026-08-31 17:37:19 | 43.27014 | 20.13078 | 114° | 58km/h | 8889m | 6.6m/s | -29.7°C | 24.4% | 0hPa | 0V | 00:00:00 | 00:00:00 | 00:00:00 | |
| LZ4TU-5 | 2026-08-31 17:37:15 | 43.27041 | 20.12993 | 102° | 60km/h | 8874m | 5.0m/s | -29.5°C | 24.3% | 0hPa | 0V | 00:00:00 | 00:00:00 | 00:00:00 | |
| LZ4TU-5 | 2026-08-31 17:37:10 | 43.27037 | 20.12922 | 105° | 37km/h | 8840m | 7.4m/s | -29.2°C | 24.5% | 0hPa | 0V | 00:00:00 | 00:00:00 | 00:00:00 |